Time;durP1;ratioP1;P1;durP2;ratioP2;P2;SDS_P1;SDS_P2;PMS_P1;PMS_P2;Temp;Humidity;BMP_temperature;BMP_pressure;BME280_temperature;BME280_humidity;BME280_pressure;Samples;Min_cycle;Max_cycle;Signal;HPM_P1;HPM_P2
2022/03/18 00:02:12;;;;;;;61.28;55.85;;;;;;;-7.15;100.00;103364.03;4991239;28;20073;-80
2022/03/18 00:04:39;;;;;;;60.85;55.05;;;;;;;-7.22;100.00;103365.88;4985513;28;20070;-79
2022/03/18 00:07:07;;;;;;;60.08;54.00;;;;;;;-7.11;100.00;103360.50;4994933;28;20077;-79
2022/03/18 00:09:34;;;;;;;59.13;53.28;;;;;;;-6.91;100.00;103370.50;4988812;28;20053;-79
2022/03/18 00:12:01;;;;;;;57.20;51.55;;;;;;;-6.77;100.00;103362.50;4984755;28;20128;-79
2022/03/18 00:14:28;;;;;;;61.40;55.33;;;;;;;-7.00;100.00;103358.59;4983442;28;20047;-79
2022/03/18 00:16:55;;;;;;;57.63;51.72;;;;;;;-7.52;100.00;103361.22;4991673;28;20125;-80
2022/03/18 00:19:22;;;;;;;60.05;53.97;;;;;;;-7.38;100.00;103362.69;4986914;28;20134;-79
2022/03/18 00:21:52;;;;;;;60.30;54.50;;;;;;;-7.61;100.00;103367.38;4990684;28;20442;-80
2022/03/18 00:24:20;;;;;;;60.30;54.42;;;;;;;-7.08;100.00;103362.19;4987993;28;20054;-79
2022/03/18 00:26:46;;;;;;;58.53;52.55;;;;;;;-7.03;100.00;103368.13;4984690;28;20546;-79
2022/03/18 00:29:13;;;;;;;56.53;51.13;;;;;;;-7.11;100.00;103365.66;4989074;28;20046;-79
2022/03/18 00:31:40;;;;;;;68.25;61.72;;;;;;;-7.25;100.00;103359.91;4990360;28;20141;-84
2022/03/18 00:34:08;;;;;;;70.32;64.38;;;;;;;-7.30;100.00;103366.88;4991531;28;20046;-81
2022/03/18 00:36:35;;;;;;;64.88;59.05;;;;;;;-7.44;100.00;103367.13;4983629;28;20061;-79
2022/03/18 00:39:02;;;;;;;66.40;60.58;;;;;;;-7.36;100.00;103365.25;4987869;28;20449;-78
2022/03/18 00:41:30;;;;;;;68.40;62.58;;;;;;;-7.62;100.00;103357.94;4987613;28;20120;-79
2022/03/18 00:43:57;;;;;;;70.22;63.53;;;;;;;-7.25;100.00;103368.50;4988212;28;20057;-80
2022/03/18 00:46:24;;;;;;;69.35;62.75;;;;;;;-7.28;100.00;103365.97;4992376;28;20050;-81
2022/03/18 00:54:20;;;;;;;75.45;68.47;;;;;;;-7.25;100.00;103365.91;4980290;28;20100;-79
2022/03/18 00:56:48;;;;;;;76.85;69.32;;;;;;;-7.46;100.00;103367.13;4991606;28;20061;-81
2022/03/18 00:59:15;;;;;;;82.15;74.20;;;;;;;-7.81;100.00;103369.38;4985388;28;20047;-80
2022/03/18 01:01:42;;;;;;;81.75;73.93;;;;;;;-8.05;100.00;103363.69;4986138;28;20063;-79
2022/03/18 01:04:09;;;;;;;78.97;70.85;;;;;;;-7.87;100.00;103368.59;4987683;28;20058;-79
2022/03/18 01:06:36;;;;;;;81.93;73.85;;;;;;;-7.60;100.00;103366.47;4990352;28;20121;-79
2022/03/18 01:09:04;;;;;;;78.22;70.07;;;;;;;-7.56;100.00;103372.44;4982356;28;20396;-80
2022/03/18 01:11:31;;;;;;;79.03;70.80;;;;;;;-8.21;100.00;103367.38;4984312;28;20094;-81
2022/03/18 01:13:59;;;;;;;79.32;71.28;;;;;;;-7.61;100.00;103375.13;4985235;28;20387;-79
2022/03/18 01:16:25;;;;;;;75.07;67.65;;;;;;;-7.64;100.00;103381.16;4992196;28;20125;-80
2022/03/18 01:18:52;;;;;;;76.65;68.35;;;;;;;-8.02;100.00;103378.28;4989313;28;20368;-81
2022/03/18 01:21:19;;;;;;;86.85;78.47;;;;;;;-7.78;100.00;103379.66;4987947;28;20124;-79
2022/03/18 01:23:46;;;;;;;75.82;68.10;;;;;;;-7.79;100.00;103380.56;4981718;28;20054;-79
2022/03/18 01:26:13;;;;;;;72.45;64.78;;;;;;;-7.89;100.00;103382.41;4986045;28;20054;-79
2022/03/18 01:28:39;;;;;;;77.93;69.20;;;;;;;-7.82;100.00;103381.44;4984718;28;20118;-80
2022/03/18 01:31:07;;;;;;;71.28;63.03;;;;;;;-7.72;100.00;103377.00;4989220;28;20054;-79
2022/03/18 01:33:36;;;;;;;77.88;62.70;;;;;;;-7.86;100.00;103375.47;4986682;28;20542;-80
2022/03/18 01:36:03;;;;;;;80.57;61.33;;;;;;;-7.89;100.00;103378.09;4981565;28;20454;-79
2022/03/18 01:38:29;;;;;;;70.65;63.15;;;;;;;-8.28;100.00;103379.50;4989873;28;20085;-80
2022/03/18 01:40:56;;;;;;;72.82;62.65;;;;;;;-8.21;100.00;103385.41;4985265;28;20483;-80
2022/03/18 01:43:23;;;;;;;67.72;60.40;;;;;;;-8.27;100.00;103370.88;4992904;28;20142;-81
2022/03/18 01:45:51;;;;;;;80.28;68.47;;;;;;;-8.41;100.00;103378.81;4994818;28;20132;-79
2022/03/18 01:48:19;;;;;;;79.25;66.03;;;;;;;-8.19;100.00;103381.09;4993198;28;20097;-80
2022/03/18 01:50:47;;;;;;;74.57;66.25;;;;;;;-8.09;100.00;103382.66;4992891;28;20498;-79
2022/03/18 01:53:14;;;;;;;65.65;59.20;;;;;;;-8.02;100.00;103378.28;4984129;28;20051;-79
2022/03/18 01:55:41;;;;;;;62.58;56.13;;;;;;;-8.26;100.00;103387.19;4989597;28;20108;-79
2022/03/18 01:58:08;;;;;;;60.88;54.67;;;;;;;-8.27;100.00;103385.50;4990914;28;20454;-79
2022/03/18 02:00:35;;;;;;;54.05;49.05;;;;;;;-8.11;100.00;103395.59;4996594;28;20112;-79
2022/03/18 02:03:01;;;;;;;61.58;55.33;;;;;;;-8.23;100.00;103387.16;4992993;28;20121;-78
2022/03/18 02:05:31;;;;;;;67.10;60.15;;;;;;;-8.43;100.00;103408.91;4993086;28;20047;-79
2022/03/18 02:07:57;;;;;;;67.32;59.67;;;;;;;-8.38;100.00;103401.09;4988766;28;20079;-79
2022/03/18 02:10:24;;;;;;;62.92;56.55;;;;;;;-8.41;100.00;103403.72;4986971;28;20058;-79
2022/03/18 02:12:51;;;;;;;67.03;60.10;;;;;;;-8.30;100.00;103401.84;4989130;28;20050;-79
2022/03/18 02:15:18;;;;;;;68.05;61.00;;;;;;;-8.44;100.00;103409.78;4996378;28;20046;-79
2022/03/18 02:17:44;;;;;;;71.80;64.00;;;;;;;-8.67;100.00;103416.91;4991466;28;20116;-80
2022/03/18 02:20:11;;;;;;;66.35;59.85;;;;;;;-8.32;100.00;103426.78;4993032;28;20042;-79
2022/03/18 02:22:40;;;;;;;64.60;58.42;;;;;;;-8.54;100.00;103427.06;4988249;28;20488;-80
2022/03/18 02:25:12;;;;;;;61.15;55.42;;;;;;;-8.65;100.00;103422.88;4992101;28;20120;-79
2022/03/18 02:27:38;;;;;;;63.80;57.55;;;;;;;-8.75;100.00;103422.13;4989719;28;20141;-79
2022/03/18 02:30:07;;;;;;;58.60;53.13;;;;;;;-8.52;100.00;103429.63;4987957;28;20050;-80
2022/03/18 02:32:34;;;;;;;66.18;58.05;;;;;;;-8.55;100.00;103429.66;4988996;28;20466;-79
2022/03/18 02:35:02;;;;;;;72.57;59.13;;;;;;;-8.52;100.00;103432.22;4993559;28;20399;-79
2022/03/18 02:37:29;;;;;;;69.38;59.90;;;;;;;-8.45;100.00;103433.00;4989921;28;20552;-80
2022/03/18 02:39:58;;;;;;;58.80;52.30;;;;;;;-8.46;100.00;103442.47;4993144;28;20042;-79
2022/03/18 02:42:25;;;;;;;58.92;52.97;;;;;;;-8.72;100.00;103439.28;4982400;28;20154;-81
2022/03/18 02:44:53;;;;;;;63.72;55.10;;;;;;;-8.72;100.00;103437.56;4988947;28;20506;-79
2022/03/18 02:47:20;;;;;;;65.65;57.20;;;;;;;-8.67;100.00;103443.53;4988870;28;20059;-81
2022/03/18 02:49:47;;;;;;;68.57;59.90;;;;;;;-8.77;100.00;103445.34;4991113;28;20116;-79
2022/03/18 02:52:14;;;;;;;70.82;62.95;;;;;;;-8.68;100.00;103444.41;4983934;28;20042;-79
2022/03/18 02:54:42;;;;;;;66.57;59.38;;;;;;;-8.87;100.00;103453.16;4990239;28;20069;-79
2022/03/18 02:57:10;;;;;;;66.35;58.95;;;;;;;-8.73;100.00;103450.47;4987501;28;20109;-81
2022/03/18 02:59:37;;;;;;;78.72;62.33;;;;;;;-8.67;100.00;103453.84;4984492;28;20502;-79
2022/03/18 03:02:04;;;;;;;79.53;66.68;;;;;;;-8.69;100.00;103453.00;5090271;23;20046;-79
2022/03/18 03:04:31;;;;;;;73.40;62.80;;;;;;;-9.02;100.00;103452.41;4986574;28;20133;-81
2022/03/18 03:09:42;;;;;;;69.72;62.00;;;;;;;-9.27;100.00;103463.78;4989800;28;20049;-80
2022/03/18 03:12:11;;;;;;;73.55;64.40;;;;;;;-8.96;100.00;103463.53;4985987;28;20042;-79
2022/03/18 03:14:37;;;;;;;74.30;63.35;;;;;;;-8.86;100.00;103465.19;4983306;28;20097;-78
2022/03/18 03:17:05;;;;;;;72.63;59.47;;;;;;;-8.96;100.00;103464.41;4992869;28;20046;-81
2022/03/18 03:19:31;;;;;;;76.80;65.60;;;;;;;-9.04;100.00;103469.63;4984559;28;20043;-81
2022/03/18 03:21:58;;;;;;;81.43;70.10;;;;;;;-8.82;100.00;103469.44;4985815;28;20117;-80
2022/03/18 03:24:26;;;;;;;90.60;73.75;;;;;;;-8.93;100.00;103478.97;4983939;28;20058;-79
2022/03/18 03:26:52;;;;;;;90.38;71.22;;;;;;;-9.08;100.00;103474.81;4986857;28;20046;-80
2022/03/18 03:29:20;;;;;;;87.10;67.75;;;;;;;-9.42;100.00;103481.91;4989274;28;20043;-79
2022/03/18 03:31:47;;;;;;;95.07;71.57;;;;;;;-8.95;100.00;103486.72;4987854;28;20058;-80
2022/03/18 03:34:16;;;;;;;86.35;67.65;;;;;;;-9.26;100.00;103480.94;4984506;28;20062;-80
2022/03/18 03:36:42;;;;;;;85.40;67.63;;;;;;;-9.05;100.00;103485.94;4984051;28;20050;-80
2022/03/18 03:39:09;;;;;;;80.68;66.07;;;;;;;-9.08;100.00;103485.09;4985383;28;20105;-79
2022/03/18 03:41:36;;;;;;;88.28;68.97;;;;;;;-9.20;100.00;103498.06;4985011;28;20046;-80
2022/03/18 03:44:03;;;;;;;101.53;73.93;;;;;;;-9.03;100.00;103501.38;4987859;28;20128;-80
2022/03/18 03:46:33;;;;;;;85.75;65.40;;;;;;;-9.12;100.00;103497.16;4989957;28;20050;-80
2022/03/18 03:49:00;;;;;;;71.07;57.50;;;;;;;-9.26;100.00;103505.00;4985115;28;20065;-80
2022/03/18 03:51:27;;;;;;;68.13;56.83;;;;;;;-9.33;100.00;103505.88;4990310;28;20050;-79
2022/03/18 03:53:54;;;;;;;82.93;65.43;;;;;;;-9.22;100.00;103508.38;4984633;28;20058;-78
2022/03/18 03:56:20;;;;;;;74.22;63.03;;;;;;;-9.37;100.00;103499.03;4986466;28;20117;-79
2022/03/18 03:58:48;;;;;;;72.85;64.57;;;;;;;-9.33;100.00;103516.16;4985706;28;20058;-81
2022/03/18 04:01:14;;;;;;;67.95;58.20;;;;;;;-9.36;100.00;103528.22;4974870;28;20464;-79
2022/03/18 04:03:45;;;;;;;79.38;70.38;;;;;;;-9.03;100.00;103525.41;4984265;28;20046;-79
2022/03/18 04:06:11;;;;;;;74.05;63.08;;;;;;;-9.03;100.00;103529.72;4989154;28;20054;-79
2022/03/18 04:08:38;;;;;;;76.05;67.38;;;;;;;-8.82;100.00;103532.13;4991836;28;20116;-80
2022/03/18 04:11:06;;;;;;;81.55;72.32;;;;;;;-8.83;100.00;103537.31;4988540;28;20047;-79
2022/03/18 04:13:32;;;;;;;80.13;68.80;;;;;;;-8.66;100.00;103534.56;4984217;28;20086;-81
2022/03/18 04:15:59;;;;;;;79.38;67.40;;;;;;;-8.74;100.00;103544.09;4989819;28;20431;-79
2022/03/18 04:18:26;;;;;;;90.32;74.20;;;;;;;-8.78;100.00;103538.09;4983681;28;20125;-81
2022/03/18 04:20:54;;;;;;;77.40;62.15;;;;;;;-8.93;100.00;103544.22;4982584;28;20051;-79
2022/03/18 04:23:21;;;;;;;70.57;58.33;;;;;;;-9.11;100.00;103541.78;4988136;28;20053;-79
2022/03/18 04:25:50;;;;;;;62.50;51.42;;;;;;;-9.46;100.00;103548.00;4984474;28;20054;-79
2022/03/18 04:28:17;;;;;;;58.88;52.33;;;;;;;-9.00;100.00;103550.28;4984541;28;20059;-80
2022/03/18 04:30:44;;;;;;;63.78;55.83;;;;;;;-8.84;100.00;103551.88;4992536;28;20047;-80
2022/03/18 04:33:11;;;;;;;62.30;55.38;;;;;;;-9.09;100.00;103548.63;4987072;28;20047;-81
2022/03/18 04:35:37;;;;;;;65.10;56.08;;;;;;;-8.97;100.00;103559.72;4990986;28;20538;-80
2022/03/18 04:38:06;;;;;;;58.53;51.88;;;;;;;-9.11;100.00;103560.66;4988447;28;20050;-79
2022/03/18 04:40:33;;;;;;;78.75;62.25;;;;;;;-9.23;100.00;103565.88;4983311;28;20046;-79
2022/03/18 04:42:59;;;;;;;84.53;62.67;;;;;;;-9.11;100.00;103568.38;4984851;28;20055;-79
2022/03/18 04:45:26;;;;;;;96.07;67.60;;;;;;;-9.19;100.00;103565.03;4984404;28;20055;-81
2022/03/18 04:47:55;;;;;;;120.82;78.07;;;;;;;-9.21;100.00;103574.47;4983953;28;20450;-80
2022/03/18 04:50:22;;;;;;;104.70;72.55;;;;;;;-9.02;100.00;103577.78;4985015;28;20122;-80
2022/03/18 04:52:48;;;;;;;101.85;73.28;;;;;;;-9.09;100.00;103583.84;4984266;28;20050;-79
2022/03/18 04:55:17;;;;;;;114.30;84.03;;;;;;;-8.80;100.00;103578.50;4985044;28;20112;-80
2022/03/18 04:57:43;;;;;;;112.80;80.95;;;;;;;-8.67;100.00;103577.53;4982042;28;20050;-81
2022/03/18 05:00:11;;;;;;;115.38;80.88;;;;;;;-8.79;100.00;103575.91;4982418;28;20113;-80
2022/03/18 05:02:38;;;;;;;122.40;81.35;;;;;;;-8.64;100.00;103579.25;4981994;28;20066;-79
2022/03/18 05:05:08;;;;;;;105.18;75.90;;;;;;;-8.60;100.00;103578.34;4986095;28;20046;-79
2022/03/18 05:07:35;;;;;;;94.20;69.15;;;;;;;-8.39;100.00;103580.72;4989175;28;20081;-79
2022/03/18 05:10:02;;;;;;;90.55;67.00;;;;;;;-8.08;100.00;103583.00;4988208;28;20046;-79
2022/03/18 05:12:31;;;;;;;88.55;69.15;;;;;;;-7.91;100.00;103594.00;4989645;28;20152;-80
2022/03/18 05:14:58;;;;;;;85.88;65.82;;;;;;;-7.92;100.00;103588.88;4986841;28;20065;-80
2022/03/18 05:17:25;;;;;;;90.47;67.60;;;;;;;-7.82;100.00;103593.06;4984134;28;20054;-79
2022/03/18 05:19:51;;;;;;;133.95;79.20;;;;;;;-7.73;100.00;103599.84;4985374;28;20458;-79
2022/03/18 05:22:19;;;;;;;70.85;58.92;;;;;;;-7.68;100.00;103596.34;4994747;28;20108;-79
2022/03/18 05:24:45;;;;;;;60.85;51.95;;;;;;;-7.56;100.00;103610.84;4987492;28;20463;-79
2022/03/18 05:29:39;;;;;;;52.67;47.25;;;;;;;-7.34;100.00;103608.00;4998053;28;20042;-80
2022/03/18 05:32:07;;;;;;;54.40;48.88;;;;;;;-7.49;100.00;103616.78;4990716;28;20047;-79
2022/03/18 05:34:34;;;;;;;63.38;56.38;;;;;;;-7.19;100.00;103613.81;4986481;28;20054;-80
2022/03/18 05:37:02;;;;;;;52.05;47.10;;;;;;;-6.91;100.00;103614.25;4989129;28;20113;-79
2022/03/18 05:39:28;;;;;;;64.63;57.88;;;;;;;-6.74;100.00;103619.22;4994216;28;20046;-80
2022/03/18 05:41:55;;;;;;;54.60;49.15;;;;;;;-6.56;100.00;103617.22;4984500;28;20121;-81
2022/03/18 05:44:22;;;;;;;78.68;66.20;;;;;;;-6.61;100.00;103611.25;4987124;28;20043;-80
2022/03/18 05:46:51;;;;;;;52.33;46.97;;;;;;;-6.24;100.00;103622.69;4983605;28;20050;-79
2022/03/18 05:49:18;;;;;;;51.42;46.13;;;;;;;-6.02;100.00;103627.50;4986069;28;20502;-81
2022/03/18 05:51:45;;;;;;;54.53;48.88;;;;;;;-5.78;100.00;103621.88;4990440;28;20124;-79
2022/03/18 05:54:13;;;;;;;74.93;68.15;;;;;;;-5.56;100.00;103617.13;4991049;28;20105;-80
2022/03/18 05:56:55;;;;;;;76.03;67.70;;;;;;;-5.33;100.00;103624.41;4990425;28;20065;-79
2022/03/18 05:59:24;;;;;;;80.35;71.22;;;;;;;-4.93;100.00;103627.88;4987819;28;20120;-79
2022/03/18 06:01:52;;;;;;;82.70;74.18;;;;;;;-4.54;100.00;103627.84;4990478;28;20090;-81
2022/03/18 06:04:19;;;;;;;84.03;75.07;;;;;;;-4.37;100.00;103629.16;4988830;28;20561;-79
2022/03/18 06:06:47;;;;;;;77.85;69.65;;;;;;;-4.12;100.00;103628.53;4987362;28;20050;-79
2022/03/18 06:11:59;;;;;;;83.80;75.25;;;;;;;-3.51;100.00;103624.31;4987282;28;20097;-79
2022/03/18 06:14:28;;;;;;;87.63;76.65;;;;;;;-3.38;100.00;103630.00;4986697;28;20127;-80
2022/03/18 06:16:59;;;;;;;90.38;77.97;;;;;;;-3.22;100.00;103639.03;4989593;28;20046;-79
2022/03/18 06:19:26;;;;;;;92.40;82.88;;;;;;;-2.71;100.00;103632.31;4986910;28;20475;-79
2022/03/18 06:21:53;;;;;;;86.43;77.82;;;;;;;-2.24;100.00;103639.47;4978805;28;20039;-80
2022/03/18 06:24:21;;;;;;;87.28;78.55;;;;;;;-1.70;100.00;103631.53;4993782;28;20486;-79
2022/03/18 06:26:49;;;;;;;83.88;75.82;;;;;;;-1.44;100.00;103630.59;4990959;28;20046;-80
2022/03/18 06:29:16;;;;;;;83.65;76.28;;;;;;;-1.18;100.00;103629.63;4986413;28;20054;-80
2022/03/18 06:31:42;;;;;;;78.22;71.72;;;;;;;-0.75;100.00;103627.13;4995169;28;20058;-81
2022/03/18 06:34:11;;;;;;;82.85;75.70;;;;;;;-0.44;100.00;103623.25;4991201;28;20046;-79
2022/03/18 06:36:39;;;;;;;82.18;75.30;;;;;;;-0.08;100.00;103636.56;4992002;28;20054;-79
2022/03/18 06:39:07;;;;;;;86.30;78.78;;;;;;;0.09;100.00;103634.06;4989655;28;20116;-79
2022/03/18 06:41:33;;;;;;;84.65;77.28;;;;;;;0.01;95.88;103630.94;4989301;28;20065;-82
2022/03/18 06:44:00;;;;;;;83.45;76.35;;;;;;;0.23;91.05;103633.47;4994985;28;20050;-79
2022/03/18 06:46:28;;;;;;;83.50;76.30;;;;;;;0.40;85.54;103630.13;4992909;28;20075;-78
2022/03/18 06:48:55;;;;;;;84.32;77.22;;;;;;;0.33;80.77;103621.66;4990133;28;20078;-80
2022/03/18 06:51:23;;;;;;;82.10;75.50;;;;;;;0.63;78.46;103623.81;4994407;28;20050;-79
2022/03/18 06:53:49;;;;;;;81.32;74.85;;;;;;;0.54;73.46;103630.31;4989408;28;20121;-80
2022/03/18 06:56:16;;;;;;;87.50;80.45;;;;;;;0.79;72.93;103631.84;4988995;28;20101;-78
2022/03/18 06:58:43;;;;;;;89.07;81.68;;;;;;;0.96;71.22;103626.66;4992757;28;20050;-79
2022/03/18 07:01:10;;;;;;;89.82;82.40;;;;;;;0.95;68.92;103632.81;4994877;28;20059;-79
2022/03/18 07:03:37;;;;;;;87.90;80.80;;;;;;;1.10;67.76;103639.94;4989571;28;20054;-79
2022/03/18 07:06:04;;;;;;;91.03;83.93;;;;;;;1.28;73.58;103632.16;4984562;28;20144;-80
2022/03/18 07:08:32;;;;;;;87.25;79.85;;;;;;;1.27;66.75;103641.78;4985554;28;20121;-79
2022/03/18 07:10:59;;;;;;;89.18;81.82;;;;;;;1.29;66.77;103634.69;4987270;28;20054;-80
2022/03/18 07:13:26;;;;;;;91.20;83.60;;;;;;;1.44;65.93;103634.88;4985733;28;20471;-79
2022/03/18 07:15:53;;;;;;;90.03;82.40;;;;;;;1.14;64.99;103627.56;4991260;28;20474;-79
2022/03/18 07:18:18;;;;;;;91.07;83.38;;;;;;;1.44;65.20;103633.09;4983940;28;20125;-79
2022/03/18 07:20:45;;;;;;;88.75;81.60;;;;;;;1.50;64.82;103635.41;4990161;28;20046;-79
2022/03/18 07:23:14;;;;;;;92.40;85.20;;;;;;;1.25;64.88;103633.13;4981608;28;20051;-79
2022/03/18 07:25:44;;;;;;;89.05;82.07;;;;;;;1.39;64.08;103629.84;4985730;28;20051;-79
2022/03/18 07:28:13;;;;;;;89.75;82.90;;;;;;;1.65;65.73;103635.59;4987538;28;20140;-78
2022/03/18 07:30:41;;;;;;;92.57;85.10;;;;;;;2.17;63.81;103638.16;4995776;28;20054;-81
2022/03/18 07:33:08;;;;;;;91.32;84.00;;;;;;;1.72;62.55;103629.09;4983673;28;20117;-80
2022/03/18 07:35:36;;;;;;;91.07;83.75;;;;;;;1.74;62.95;103629.88;4990676;28;20116;-81
2022/03/18 07:38:05;;;;;;;89.40;82.28;;;;;;;2.65;64.17;103637.34;4991871;28;20054;-80
2022/03/18 07:40:32;;;;;;;89.90;82.72;;;;;;;2.49;61.55;103644.38;4983767;28;20050;-79
2022/03/18 07:43:00;;;;;;;88.70;81.85;;;;;;;2.28;62.40;103631.44;4993400;28;20054;-80
2022/03/18 07:45:29;;;;;;;87.15;80.53;;;;;;;2.88;61.00;103628.25;4993894;28;20054;-79
2022/03/18 07:47:58;;;;;;;92.13;84.93;;;;;;;2.80;61.13;103627.81;4987533;28;20069;-80
2022/03/18 07:50:27;;;;;;;90.68;82.78;;;;;;;4.10;62.17;103630.84;4986294;28;20058;-81
2022/03/18 07:52:56;;;;;;;100.70;92.60;;;;;;;3.68;57.23;103632.44;4995527;28;20442;-79
2022/03/18 07:55:25;;;;;;;97.68;90.18;;;;;;;3.76;56.71;103629.38;4989448;28;20058;-80
2022/03/18 07:57:52;;;;;;;86.70;80.40;;;;;;;4.35;59.30;103632.81;4987498;28;20432;-79
2022/03/18 08:00:21;;;;;;;91.30;84.40;;;;;;;4.11;55.11;103631.69;4984248;28;20105;-79
2022/03/18 08:02:51;;;;;;;93.97;86.57;;;;;;;4.60;55.35;103631.31;4986099;28;20066;-79
2022/03/18 08:05:19;;;;;;;92.80;85.70;;;;;;;4.98;54.38;103630.69;4989481;28;20050;-78
2022/03/18 08:07:47;;;;;;;98.88;91.25;;;;;;;4.80;52.79;103628.28;4992371;28;20053;-79
2022/03/18 08:10:15;;;;;;;103.95;95.72;;;;;;;4.30;52.92;103628.81;4985726;28;20527;-80
2022/03/18 08:12:43;;;;;;;96.43;88.93;;;;;;;4.60;53.75;103628.69;4986558;28;20137;-81
2022/03/18 08:15:12;;;;;;;92.97;85.97;;;;;;;5.22;53.17;103631.72;4985554;28;20117;-80
2022/03/18 08:17:41;;;;;;;99.65;92.22;;;;;;;5.40;52.86;103629.69;4983348;28;20464;-80
2022/03/18 08:20:10;;;;;;;99.70;92.25;;;;;;;4.93;52.13;103631.00;4983932;28;20051;-82
2022/03/18 08:22:36;;;;;;;95.30;88.00;;;;;;;4.97;50.49;103637.75;4991059;28;20109;-79
2022/03/18 08:25:04;;;;;;;101.50;93.88;;;;;;;4.52;50.50;103636.22;4983219;28;20128;-79
2022/03/18 08:27:32;;;;;;;100.75;93.15;;;;;;;5.05;52.01;103631.97;4984047;28;20058;-78
2022/03/18 08:29:59;;;;;;;91.38;84.15;;;;;;;6.15;51.02;103624.66;4980509;28;20479;-77
2022/03/18 08:32:28;;;;;;;94.03;86.70;;;;;;;5.30;50.52;103625.97;4981992;28;20125;-80
2022/03/18 08:34:58;;;;;;;95.47;88.05;;;;;;;6.20;52.31;103624.34;4987515;28;20125;-80
2022/03/18 08:40:07;;;;;;;93.80;86.40;;;;;;;5.49;50.69;103615.91;4988208;28;20050;-81
2022/03/18 08:42:34;;;;;;;90.57;83.70;;;;;;;5.48;50.08;103618.66;4999599;28;20050;-81
2022/03/18 08:45:01;;;;;;;90.32;83.45;;;;;;;5.99;47.94;103623.19;4987400;28;20062;-80
2022/03/18 08:47:28;;;;;;;88.78;81.38;;;;;;;6.42;48.33;103619.25;4993729;28;20371;-79
2022/03/18 08:49:55;;;;;;;92.05;85.07;;;;;;;7.13;47.94;103624.75;4995255;28;20146;-79
2022/03/18 08:52:23;;;;;;;89.97;83.28;;;;;;;5.57;46.92;103619.81;4992869;28;20046;-81
2022/03/18 08:54:50;;;;;;;85.72;79.20;;;;;;;6.27;47.83;103620.34;4987457;28;20058;-79
2022/03/18 08:57:17;;;;;;;96.32;88.75;;;;;;;5.56;46.99;103618.13;4992667;28;20112;-81
2022/03/18 08:59:44;;;;;;;95.50;87.90;;;;;;;6.02;49.18;103630.88;4986012;28;20078;-80
2022/03/18 09:02:11;;;;;;;89.45;82.55;;;;;;;6.47;52.46;103629.47;4977968;28;20078;-79
2022/03/18 09:04:38;;;;;;;92.85;85.63;;;;;;;6.45;53.64;103635.84;4975677;28;20047;-79
2022/03/18 09:07:05;;;;;;;93.63;86.47;;;;;;;6.25;51.36;103629.31;4973353;28;20051;-80
2022/03/18 09:09:33;;;;;;;95.07;87.97;;;;;;;6.65;46.43;103622.91;4968940;28;20129;-81
2022/03/18 09:12:00;;;;;;;90.30;83.50;;;;;;;6.87;46.43;103627.50;4975315;28;20137;-79
2022/03/18 09:14:27;;;;;;;96.13;88.93;;;;;;;7.18;44.46;103620.00;4966841;28;20160;-80
2022/03/18 09:16:53;;;;;;;101.68;93.28;;;;;;;8.18;43.85;103629.19;4968286;28;20071;-78
2022/03/18 09:19:20;;;;;;;86.82;80.80;;;;;;;7.18;45.75;103621.81;4971981;28;20129;-79
2022/03/18 09:21:47;;;;;;;90.88;84.78;;;;;;;7.43;42.72;103624.31;4975379;28;20043;-79
2022/03/18 09:24:14;;;;;;;94.90;88.20;;;;;;;7.53;43.10;103621.81;4976001;28;20047;-80
2022/03/18 09:26:42;;;;;;;96.63;89.50;;;;;;;7.98;44.36;103620.13;4975273;28;20055;-79
2022/03/18 09:29:09;;;;;;;88.78;82.13;;;;;;;6.36;44.01;103618.84;4971655;28;20172;-81
2022/03/18 09:31:36;;;;;;;89.22;82.45;;;;;;;8.19;42.45;103622.91;4976230;28;20117;-78
2022/03/18 09:34:03;;;;;;;95.78;88.47;;;;;;;8.48;41.04;103625.97;4975116;28;20078;-79
2022/03/18 09:36:31;;;;;;;92.25;85.63;;;;;;;7.85;39.86;103629.97;4976750;28;20126;-80
2022/03/18 09:38:58;;;;;;;94.38;87.38;;;;;;;7.40;40.53;103621.03;4969813;28;20411;-79
2022/03/18 09:41:25;;;;;;;97.90;90.68;;;;;;;8.45;39.86;103625.38;4969294;28;20050;-77
2022/03/18 09:43:53;;;;;;;87.80;81.50;;;;;;;8.97;38.96;103623.84;4971876;28;20476;-78
2022/03/18 09:46:21;;;;;;;85.03;79.05;;;;;;;8.47;39.69;103629.59;4973671;28;20058;-78
2022/03/18 09:48:48;;;;;;;95.78;88.82;;;;;;;8.72;39.08;103635.59;4969069;28;20119;-79
2022/03/18 09:51:15;;;;;;;96.80;89.90;;;;;;;7.91;39.39;103626.00;4981209;28;20109;-78
2022/03/18 09:53:42;;;;;;;93.82;86.03;;;;;;;8.21;40.53;103631.59;4972605;28;20129;-79
2022/03/18 09:56:11;;;;;;;95.35;88.22;;;;;;;7.73;41.90;103631.75;4967882;28;20563;-80
2022/03/18 09:58:39;;;;;;;87.32;81.00;;;;;;;7.46;39.92;103625.88;4967632;28;20082;-79
2022/03/18 10:01:07;;;;;;;85.53;79.15;;;;;;;8.13;39.54;103633.97;4977367;28;20129;-79
2022/03/18 10:03:38;;;;;;;82.70;76.80;;;;;;;8.63;39.45;103621.25;4964048;28;20051;-79
2022/03/18 10:06:06;;;;;;;92.35;85.97;;;;;;;9.68;38.81;103620.66;4965907;28;20058;-80
2022/03/18 10:08:49;;;;;;;99.70;92.57;;;;;;;8.75;37.75;103626.56;4966711;28;20079;-78
2022/03/18 10:11:17;;;;;;;86.72;80.32;;;;;;;7.78;39.66;103619.00;4973260;28;20137;-81
2022/03/18 10:13:52;;;;;;;86.40;80.30;;;;;;;9.81;37.83;103611.53;4979696;28;20054;-78
2022/03/18 10:16:32;;;;;;;89.07;82.53;;;;;;;9.12;36.70;103613.81;4980371;28;20051;-79
2022/03/18 10:18:59;;;;;;;89.88;83.20;;;;;;;9.91;37.48;103616.06;4978523;28;20057;-78
2022/03/18 10:21:26;;;;;;;87.88;81.50;;;;;;;9.57;38.15;103611.78;4969557;28;20055;-79
2022/03/18 10:24:04;;;;;;;91.93;85.15;;;;;;;9.73;37.18;103611.34;4966836;28;20061;-79
2022/03/18 10:26:34;;;;;;;87.47;80.82;;;;;;;7.90;38.10;103616.41;4973912;28;20114;-78
2022/03/18 10:29:01;;;;;;;91.00;84.00;;;;;;;8.36;38.60;103608.38;4972890;28;20050;-78
2022/03/18 10:31:29;;;;;;;94.15;87.15;;;;;;;9.01;34.99;103617.31;4973164;28;20078;-81
2022/03/18 10:39:29;;;;;;;87.93;81.53;;;;;;;10.66;35.25;103596.28;4972442;28;20054;-78
2022/03/18 10:41:57;;;;;;;86.72;80.63;;;;;;;10.51;34.33;103594.00;4975866;28;20531;-79
2022/03/18 10:44:24;;;;;;;87.70;81.47;;;;;;;11.10;34.47;103602.91;4969583;28;20082;-79
2022/03/18 10:46:53;;;;;;;89.10;82.50;;;;;;;10.01;36.10;103599.19;4977610;28;20055;-78
2022/03/18 10:49:23;;;;;;;89.85;83.22;;;;;;;8.74;34.28;103601.00;4965287;28;20102;-81
2022/03/18 10:51:51;;;;;;;86.32;79.85;;;;;;;8.34;36.66;103590.91;4966938;28;20070;-79
2022/03/18 10:54:24;;;;;;;92.90;85.93;;;;;;;9.35;35.84;103580.09;4966918;28;20566;-77
2022/03/18 10:56:58;;;;;;;92.40;85.22;;;;;;;10.85;35.85;103577.69;4976676;28;20042;-78
2022/03/18 10:59:27;;;;;;;85.25;79.15;;;;;;;11.06;31.59;103574.91;4969460;28;20055;-79
2022/03/18 11:01:57;;;;;;;89.78;83.18;;;;;;;9.16;34.76;103581.59;4972466;28;20094;-80
2022/03/18 11:04:25;;;;;;;89.88;83.10;;;;;;;7.48;37.12;103579.84;4975251;28;20435;-79
2022/03/18 11:12:29;;;;;;;91.85;85.15;;;;;;;10.43;37.42;103567.25;4969363;28;20136;-79
2022/03/18 11:14:57;;;;;;;101.15;93.85;;;;;;;9.82;38.64;103569.91;4968945;28;20558;-79
2022/03/18 11:17:25;;;;;;;94.60;87.70;;;;;;;9.86;37.71;103573.97;4964574;28;20476;-79
2022/03/18 11:19:53;;;;;;;91.18;84.68;;;;;;;9.97;33.78;103560.63;4971733;28;20539;-78
2022/03/18 11:22:21;;;;;;;99.15;92.18;;;;;;;10.69;32.50;103556.13;4970562;28;20083;-79
2022/03/18 11:24:50;;;;;;;94.90;88.30;;;;;;;9.95;32.97;103561.72;4963693;28;20078;-78
2022/03/18 11:27:17;;;;;;;94.97;87.55;;;;;;;9.13;34.66;103546.53;4968253;28;20080;-79
2022/03/18 11:29:44;;;;;;;102.45;95.18;;;;;;;9.10;37.05;103544.97;4968720;28;20043;-79
2022/03/18 11:32:23;;;;;;;100.82;93.65;;;;;;;9.76;35.01;103554.50;4975827;28;20538;-81
2022/03/18 11:34:57;;;;;;;100.18;92.93;;;;;;;11.43;33.29;103537.75;4976710;28;20043;-82
2022/03/18 11:37:25;;;;;;;95.90;88.93;;;;;;;9.97;32.96;103536.72;4966615;28;20047;-79